sensor_id;sensor_type;location;lat;lon;timestamp;P1;durP1;ratioP1;P2;durP2;ratioP2
13560;SDS011;6852;51.686;5.314;2023-04-03T00:00:19;3.43;;;1.83;;
13560;SDS011;6852;51.686;5.314;2023-04-03T00:02:46;4.03;;;1.80;;
13560;SDS011;6852;51.686;5.314;2023-04-03T00:05:13;2.63;;;1.53;;
13560;SDS011;6852;51.686;5.314;2023-04-03T00:07:40;2.67;;;2.10;;
13560;SDS011;6852;51.686;5.314;2023-04-03T00:10:07;3.17;;;1.90;;
13560;SDS011;6852;51.686;5.314;2023-04-03T00:12:35;2.90;;;1.90;;
13560;SDS011;6852;51.686;5.314;2023-04-03T00:15:02;1.93;;;1.50;;
13560;SDS011;6852;51.686;5.314;2023-04-03T00:17:29;2.93;;;2.23;;
13560;SDS011;6852;51.686;5.314;2023-04-03T00:19:56;2.33;;;1.87;;
13560;SDS011;6852;51.686;5.314;2023-04-03T00:22:23;2.67;;;1.77;;
13560;SDS011;6852;51.686;5.314;2023-04-03T00:24:50;3.10;;;1.80;;
13560;SDS011;6852;51.686;5.314;2023-04-03T00:27:16;2.77;;;2.00;;
13560;SDS011;6852;51.686;5.314;2023-04-03T00:29:43;2.00;;;1.40;;
13560;SDS011;6852;51.686;5.314;2023-04-03T00:32:10;1.73;;;1.53;;
13560;SDS011;6852;51.686;5.314;2023-04-03T00:34:37;4.17;;;1.80;;
13560;SDS011;6852;51.686;5.314;2023-04-03T00:37:04;5.40;;;1.83;;
13560;SDS011;6852;51.686;5.314;2023-04-03T00:39:31;2.17;;;1.73;;
13560;SDS011;6852;51.686;5.314;2023-04-03T00:41:58;5.80;;;2.10;;
13560;SDS011;6852;51.686;5.314;2023-04-03T00:47:01;5.93;;;2.37;;
13560;SDS011;6852;51.686;5.314;2023-04-03T00:49:32;2.37;;;1.60;;
13560;SDS011;6852;51.686;5.314;2023-04-03T00:51:59;3.07;;;1.87;;
13560;SDS011;6852;51.686;5.314;2023-04-03T00:54:26;4.80;;;1.70;;
13560;SDS011;6852;51.686;5.314;2023-04-03T00:56:53;3.57;;;2.30;;
13560;SDS011;6852;51.686;5.314;2023-04-03T00:59:27;4.87;;;1.93;;
13560;SDS011;6852;51.686;5.314;2023-04-03T01:01:59;2.30;;;1.77;;
13560;SDS011;6852;51.686;5.314;2023-04-03T01:04:27;1.87;;;1.60;;
13560;SDS011;6852;51.686;5.314;2023-04-03T01:07:22;2.17;;;1.57;;
13560;SDS011;6852;51.686;5.314;2023-04-03T01:09:55;3.60;;;1.80;;
13560;SDS011;6852;51.686;5.314;2023-04-03T01:12:26;4.93;;;1.80;;
13560;SDS011;6852;51.686;5.314;2023-04-03T01:14:57;2.10;;;1.90;;
13560;SDS011;6852;51.686;5.314;2023-04-03T01:25:57;3.37;;;1.90;;
13560;SDS011;6852;51.686;5.314;2023-04-03T01:28:26;3.33;;;1.80;;
13560;SDS011;6852;51.686;5.314;2023-04-03T01:33:34;3.10;;;2.20;;
13560;SDS011;6852;51.686;5.314;2023-04-03T01:36:01;6.63;;;1.80;;
13560;SDS011;6852;51.686;5.314;2023-04-03T01:38:29;3.17;;;1.87;;
13560;SDS011;6852;51.686;5.314;2023-04-03T01:40:56;2.97;;;1.90;;
13560;SDS011;6852;51.686;5.314;2023-04-03T01:43:23;2.87;;;1.90;;
13560;SDS011;6852;51.686;5.314;2023-04-03T01:45:50;2.60;;;1.90;;
13560;SDS011;6852;51.686;5.314;2023-04-03T01:48:19;3.77;;;1.87;;
13560;SDS011;6852;51.686;5.314;2023-04-03T01:50:46;1.97;;;1.60;;
13560;SDS011;6852;51.686;5.314;2023-04-03T01:53:12;3.20;;;1.83;;
13560;SDS011;6852;51.686;5.314;2023-04-03T01:55:40;2.93;;;1.80;;
13560;SDS011;6852;51.686;5.314;2023-04-03T01:58:07;3.73;;;1.70;;
13560;SDS011;6852;51.686;5.314;2023-04-03T02:00:34;2.93;;;1.53;;
13560;SDS011;6852;51.686;5.314;2023-04-03T02:03:01;3.17;;;2.10;;
13560;SDS011;6852;51.686;5.314;2023-04-03T02:05:29;2.80;;;1.67;;
13560;SDS011;6852;51.686;5.314;2023-04-03T02:07:56;4.03;;;1.90;;
13560;SDS011;6852;51.686;5.314;2023-04-03T02:10:23;3.00;;;1.93;;
13560;SDS011;6852;51.686;5.314;2023-04-03T02:12:50;2.77;;;1.87;;
13560;SDS011;6852;51.686;5.314;2023-04-03T02:15:17;3.17;;;1.87;;
13560;SDS011;6852;51.686;5.314;2023-04-03T02:17:44;2.13;;;1.43;;
13560;SDS011;6852;51.686;5.314;2023-04-03T02:20:11;3.63;;;1.77;;
13560;SDS011;6852;51.686;5.314;2023-04-03T02:22:38;6.47;;;2.17;;
13560;SDS011;6852;51.686;5.314;2023-04-03T02:25:04;5.90;;;2.10;;
13560;SDS011;6852;51.686;5.314;2023-04-03T02:27:31;2.10;;;1.73;;
13560;SDS011;6852;51.686;5.314;2023-04-03T02:29:58;3.27;;;2.40;;
13560;SDS011;6852;51.686;5.314;2023-04-03T02:32:25;5.03;;;1.90;;
13560;SDS011;6852;51.686;5.314;2023-04-03T02:34:52;2.97;;;1.80;;
13560;SDS011;6852;51.686;5.314;2023-04-03T02:37:19;2.17;;;1.67;;
13560;SDS011;6852;51.686;5.314;2023-04-03T02:39:47;2.57;;;1.70;;
13560;SDS011;6852;51.686;5.314;2023-04-03T02:42:13;3.07;;;1.63;;
13560;SDS011;6852;51.686;5.314;2023-04-03T02:44:40;4.10;;;2.00;;
13560;SDS011;6852;51.686;5.314;2023-04-03T02:47:07;3.30;;;1.73;;
13560;SDS011;6852;51.686;5.314;2023-04-03T02:49:34;4.37;;;1.90;;
13560;SDS011;6852;51.686;5.314;2023-04-03T02:52:01;5.80;;;1.67;;
13560;SDS011;6852;51.686;5.314;2023-04-03T02:54:28;3.20;;;1.80;;
13560;SDS011;6852;51.686;5.314;2023-04-03T02:56:58;2.67;;;1.63;;
13560;SDS011;6852;51.686;5.314;2023-04-03T02:59:25;4.67;;;1.73;;
13560;SDS011;6852;51.686;5.314;2023-04-03T03:01:51;3.77;;;1.90;;
13560;SDS011;6852;51.686;5.314;2023-04-03T03:04:18;2.80;;;1.80;;
13560;SDS011;6852;51.686;5.314;2023-04-03T03:06:46;5.43;;;1.73;;
13560;SDS011;6852;51.686;5.314;2023-04-03T03:09:13;2.57;;;1.70;;
13560;SDS011;6852;51.686;5.314;2023-04-03T03:11:40;2.67;;;1.47;;
13560;SDS011;6852;51.686;5.314;2023-04-03T03:14:07;3.20;;;1.80;;
13560;SDS011;6852;51.686;5.314;2023-04-03T03:16:34;4.40;;;2.17;;
13560;SDS011;6852;51.686;5.314;2023-04-03T03:19:00;1.53;;;1.43;;
13560;SDS011;6852;51.686;5.314;2023-04-03T03:21:27;3.00;;;1.73;;
13560;SDS011;6852;51.686;5.314;2023-04-03T03:23:54;5.03;;;1.70;;
13560;SDS011;6852;51.686;5.314;2023-04-03T03:26:21;2.80;;;1.80;;
13560;SDS011;6852;51.686;5.314;2023-04-03T03:28:48;3.80;;;1.50;;
13560;SDS011;6852;51.686;5.314;2023-04-03T03:31:15;3.90;;;1.50;;
13560;SDS011;6852;51.686;5.314;2023-04-03T03:33:42;3.53;;;1.47;;
13560;SDS011;6852;51.686;5.314;2023-04-03T03:36:09;2.33;;;1.60;;
13560;SDS011;6852;51.686;5.314;2023-04-03T03:38:37;3.17;;;1.70;;
13560;SDS011;6852;51.686;5.314;2023-04-03T03:41:03;4.00;;;1.70;;
13560;SDS011;6852;51.686;5.314;2023-04-03T03:43:30;2.30;;;1.67;;
13560;SDS011;6852;51.686;5.314;2023-04-03T03:45:57;7.17;;;1.90;;
13560;SDS011;6852;51.686;5.314;2023-04-03T03:48:24;2.23;;;1.50;;
13560;SDS011;6852;51.686;5.314;2023-04-03T03:50:51;3.63;;;1.50;;
13560;SDS011;6852;51.686;5.314;2023-04-03T03:53:18;3.13;;;1.93;;
13560;SDS011;6852;51.686;5.314;2023-04-03T03:55:45;4.73;;;1.63;;
13560;SDS011;6852;51.686;5.314;2023-04-03T03:58:12;3.87;;;1.57;;
13560;SDS011;6852;51.686;5.314;2023-04-03T04:00:39;4.67;;;1.80;;
13560;SDS011;6852;51.686;5.314;2023-04-03T04:03:06;2.73;;;1.47;;
13560;SDS011;6852;51.686;5.314;2023-04-03T04:05:33;3.50;;;1.97;;
13560;SDS011;6852;51.686;5.314;2023-04-03T04:08:00;4.00;;;1.43;;
13560;SDS011;6852;51.686;5.314;2023-04-03T04:10:27;4.90;;;1.80;;
13560;SDS011;6852;51.686;5.314;2023-04-03T04:12:54;3.00;;;1.50;;
13560;SDS011;6852;51.686;5.314;2023-04-03T04:15:23;3.90;;;1.40;;
13560;SDS011;6852;51.686;5.314;2023-04-03T04:17:51;3.17;;;1.40;;
13560;SDS011;6852;51.686;5.314;2023-04-03T04:20:19;2.70;;;1.40;;
13560;SDS011;6852;51.686;5.314;2023-04-03T04:22:46;1.93;;;1.37;;
13560;SDS011;6852;51.686;5.314;2023-04-03T04:25:13;2.77;;;1.50;;
13560;SDS011;6852;51.686;5.314;2023-04-03T04:27:40;2.30;;;1.73;;
13560;SDS011;6852;51.686;5.314;2023-04-03T04:30:07;4.30;;;1.80;;
13560;SDS011;6852;51.686;5.314;2023-04-03T04:32:35;4.07;;;1.50;;
13560;SDS011;6852;51.686;5.314;2023-04-03T04:35:01;3.10;;;1.70;;
13560;SDS011;6852;51.686;5.314;2023-04-03T04:37:30;4.43;;;1.73;;
13560;SDS011;6852;51.686;5.314;2023-04-03T04:39:57;4.93;;;1.57;;
13560;SDS011;6852;51.686;5.314;2023-04-03T04:42:23;4.53;;;1.67;;
13560;SDS011;6852;51.686;5.314;2023-04-03T04:44:50;4.17;;;1.57;;
13560;SDS011;6852;51.686;5.314;2023-04-03T04:47:17;4.20;;;1.90;;
13560;SDS011;6852;51.686;5.314;2023-04-03T04:49:44;3.30;;;1.80;;
13560;SDS011;6852;51.686;5.314;2023-04-03T04:52:13;4.00;;;1.90;;
13560;SDS011;6852;51.686;5.314;2023-04-03T04:54:40;3.23;;;1.87;;
13560;SDS011;6852;51.686;5.314;2023-04-03T04:57:07;3.37;;;2.00;;
13560;SDS011;6852;51.686;5.314;2023-04-03T04:59:34;2.50;;;1.90;;
13560;SDS011;6852;51.686;5.314;2023-04-03T05:02:01;4.37;;;2.27;;
13560;SDS011;6852;51.686;5.314;2023-04-03T05:04:28;3.03;;;2.03;;
13560;SDS011;6852;51.686;5.314;2023-04-03T05:06:55;6.90;;;2.40;;
13560;SDS011;6852;51.686;5.314;2023-04-03T05:09:22;2.90;;;1.97;;
13560;SDS011;6852;51.686;5.314;2023-04-03T05:11:49;6.83;;;2.20;;
13560;SDS011;6852;51.686;5.314;2023-04-03T05:14:16;3.60;;;1.90;;
13560;SDS011;6852;51.686;5.314;2023-04-03T05:16:43;5.73;;;1.70;;
13560;SDS011;6852;51.686;5.314;2023-04-03T05:19:10;4.53;;;1.90;;
13560;SDS011;6852;51.686;5.314;2023-04-03T05:21:37;2.73;;;1.70;;
13560;SDS011;6852;51.686;5.314;2023-04-03T05:24:04;2.60;;;1.80;;
13560;SDS011;6852;51.686;5.314;2023-04-03T05:26:35;2.70;;;1.80;;
13560;SDS011;6852;51.686;5.314;2023-04-03T05:29:02;2.37;;;1.70;;
13560;SDS011;6852;51.686;5.314;2023-04-03T05:31:30;5.90;;;2.33;;
13560;SDS011;6852;51.686;5.314;2023-04-03T05:33:57;2.80;;;1.90;;
13560;SDS011;6852;51.686;5.314;2023-04-03T05:36:24;5.20;;;1.90;;
13560;SDS011;6852;51.686;5.314;2023-04-03T05:38:52;3.33;;;1.70;;
13560;SDS011;6852;51.686;5.314;2023-04-03T05:41:19;1.87;;;1.50;;
13560;SDS011;6852;51.686;5.314;2023-04-03T05:43:49;3.93;;;1.80;;
13560;SDS011;6852;51.686;5.314;2023-04-03T05:46:17;5.03;;;1.67;;
13560;SDS011;6852;51.686;5.314;2023-04-03T05:48:45;2.63;;;1.67;;
13560;SDS011;6852;51.686;5.314;2023-04-03T05:51:16;3.97;;;1.70;;
13560;SDS011;6852;51.686;5.314;2023-04-03T05:53:45;5.20;;;1.67;;
13560;SDS011;6852;51.686;5.314;2023-04-03T05:56:13;3.33;;;1.80;;
13560;SDS011;6852;51.686;5.314;2023-04-03T05:58:40;4.50;;;1.83;;
13560;SDS011;6852;51.686;5.314;2023-04-03T06:01:07;4.17;;;1.67;;
13560;SDS011;6852;51.686;5.314;2023-04-03T06:03:34;3.00;;;1.70;;
13560;SDS011;6852;51.686;5.314;2023-04-03T06:06:05;1.63;;;1.33;;
13560;SDS011;6852;51.686;5.314;2023-04-03T06:08:32;2.13;;;1.63;;
13560;SDS011;6852;51.686;5.314;2023-04-03T06:11:00;5.27;;;1.70;;
13560;SDS011;6852;51.686;5.314;2023-04-03T06:13:28;4.60;;;1.70;;
13560;SDS011;6852;51.686;5.314;2023-04-03T06:15:55;2.50;;;1.30;;
13560;SDS011;6852;51.686;5.314;2023-04-03T06:18:23;3.47;;;1.77;;
13560;SDS011;6852;51.686;5.314;2023-04-03T06:20:50;2.53;;;1.73;;
13560;SDS011;6852;51.686;5.314;2023-04-03T06:23:17;2.73;;;1.70;;
13560;SDS011;6852;51.686;5.314;2023-04-03T06:25:44;4.10;;;1.33;;
13560;SDS011;6852;51.686;5.314;2023-04-03T06:28:11;5.63;;;1.47;;
13560;SDS011;6852;51.686;5.314;2023-04-03T06:30:38;2.27;;;1.57;;
13560;SDS011;6852;51.686;5.314;2023-04-03T06:33:05;5.33;;;1.77;;
13560;SDS011;6852;51.686;5.314;2023-04-03T06:35:33;4.83;;;1.70;;
13560;SDS011;6852;51.686;5.314;2023-04-03T06:38:01;3.63;;;1.50;;
13560;SDS011;6852;51.686;5.314;2023-04-03T06:40:30;2.23;;;1.27;;
13560;SDS011;6852;51.686;5.314;2023-04-03T06:42:57;3.43;;;1.13;;
13560;SDS011;6852;51.686;5.314;2023-04-03T06:45:24;3.17;;;1.33;;
13560;SDS011;6852;51.686;5.314;2023-04-03T06:47:51;4.60;;;1.60;;
13560;SDS011;6852;51.686;5.314;2023-04-03T06:50:18;4.57;;;1.67;;
13560;SDS011;6852;51.686;5.314;2023-04-03T06:52:45;3.63;;;1.70;;
13560;SDS011;6852;51.686;5.314;2023-04-03T06:55:12;4.17;;;1.37;;
13560;SDS011;6852;51.686;5.314;2023-04-03T06:57:39;2.87;;;1.40;;
13560;SDS011;6852;51.686;5.314;2023-04-03T07:00:06;5.53;;;1.77;;
13560;SDS011;6852;51.686;5.314;2023-04-03T07:02:35;2.40;;;1.50;;
13560;SDS011;6852;51.686;5.314;2023-04-03T07:05:02;4.60;;;2.30;;
13560;SDS011;6852;51.686;5.314;2023-04-03T07:07:29;5.10;;;1.77;;
13560;SDS011;6852;51.686;5.314;2023-04-03T07:09:56;3.60;;;1.63;;
13560;SDS011;6852;51.686;5.314;2023-04-03T07:12:23;2.93;;;1.67;;
13560;SDS011;6852;51.686;5.314;2023-04-03T07:14:50;3.13;;;1.27;;
13560;SDS011;6852;51.686;5.314;2023-04-03T07:17:17;3.03;;;1.50;;
13560;SDS011;6852;51.686;5.314;2023-04-03T07:19:44;3.50;;;1.53;;
13560;SDS011;6852;51.686;5.314;2023-04-03T07:22:11;3.00;;;1.47;;
13560;SDS011;6852;51.686;5.314;2023-04-03T07:24:39;3.53;;;1.30;;
13560;SDS011;6852;51.686;5.314;2023-04-03T07:27:06;2.97;;;1.43;;
13560;SDS011;6852;51.686;5.314;2023-04-03T07:29:34;2.70;;;1.50;;
13560;SDS011;6852;51.686;5.314;2023-04-03T07:32:02;5.20;;;1.60;;
13560;SDS011;6852;51.686;5.314;2023-04-03T07:34:29;2.87;;;1.70;;
13560;SDS011;6852;51.686;5.314;2023-04-03T07:36:56;3.43;;;1.30;;
13560;SDS011;6852;51.686;5.314;2023-04-03T07:39:24;2.83;;;1.27;;
13560;SDS011;6852;51.686;5.314;2023-04-03T07:41:51;4.87;;;1.73;;
13560;SDS011;6852;51.686;5.314;2023-04-03T07:44:18;4.40;;;1.40;;
13560;SDS011;6852;51.686;5.314;2023-04-03T07:46:45;4.13;;;1.73;;
13560;SDS011;6852;51.686;5.314;2023-04-03T07:49:13;2.93;;;1.40;;
13560;SDS011;6852;51.686;5.314;2023-04-03T07:51:40;6.53;;;1.77;;
13560;SDS011;6852;51.686;5.314;2023-04-03T07:54:07;4.00;;;1.77;;
13560;SDS011;6852;51.686;5.314;2023-04-03T07:56:34;1.67;;;1.30;;
13560;SDS011;6852;51.686;5.314;2023-04-03T07:59:04;3.97;;;1.50;;
13560;SDS011;6852;51.686;5.314;2023-04-03T08:01:34;3.03;;;1.50;;
13560;SDS011;6852;51.686;5.314;2023-04-03T08:04:01;4.47;;;1.83;;
13560;SDS011;6852;51.686;5.314;2023-04-03T08:06:28;4.27;;;1.23;;
13560;SDS011;6852;51.686;5.314;2023-04-03T08:09:11;2.90;;;1.33;;
13560;SDS011;6852;51.686;5.314;2023-04-03T08:11:40;2.77;;;1.40;;
13560;SDS011;6852;51.686;5.314;2023-04-03T08:14:07;2.20;;;1.27;;
13560;SDS011;6852;51.686;5.314;2023-04-03T08:16:37;3.00;;;1.87;;
13560;SDS011;6852;51.686;5.314;2023-04-03T08:19:04;5.13;;;1.47;;
13560;SDS011;6852;51.686;5.314;2023-04-03T08:21:37;2.23;;;1.27;;
13560;SDS011;6852;51.686;5.314;2023-04-03T08:24:05;1.37;;;1.10;;
13560;SDS011;6852;51.686;5.314;2023-04-03T08:26:32;2.60;;;1.10;;
13560;SDS011;6852;51.686;5.314;2023-04-03T08:29:00;2.40;;;1.10;;
13560;SDS011;6852;51.686;5.314;2023-04-03T08:31:27;1.77;;;1.10;;
13560;SDS011;6852;51.686;5.314;2023-04-03T08:33:54;2.37;;;1.30;;
13560;SDS011;6852;51.686;5.314;2023-04-03T08:36:24;1.83;;;1.07;;
13560;SDS011;6852;51.686;5.314;2023-04-03T08:38:53;3.90;;;1.30;;
13560;SDS011;6852;51.686;5.314;2023-04-03T08:41:32;3.17;;;1.00;;
13560;SDS011;6852;51.686;5.314;2023-04-03T08:44:15;4.00;;;1.10;;
13560;SDS011;6852;51.686;5.314;2023-04-03T08:49:21;3.40;;;1.00;;
13560;SDS011;6852;51.686;5.314;2023-04-03T08:51:50;1.83;;;0.80;;
13560;SDS011;6852;51.686;5.314;2023-04-03T08:54:24;3.07;;;1.10;;
13560;SDS011;6852;51.686;5.314;2023-04-03T08:56:55;2.73;;;1.17;;
13560;SDS011;6852;51.686;5.314;2023-04-03T08:59:26;3.13;;;1.20;;
13560;SDS011;6852;51.686;5.314;2023-04-03T09:01:56;2.50;;;0.90;;
13560;SDS011;6852;51.686;5.314;2023-04-03T09:04:25;2.30;;;0.90;;
13560;SDS011;6852;51.686;5.314;2023-04-03T09:06:54;1.30;;;0.90;;
13560;SDS011;6852;51.686;5.314;2023-04-03T09:09:39;1.00;;;0.63;;
13560;SDS011;6852;51.686;5.314;2023-04-03T09:23:19;1.90;;;0.80;;
13560;SDS011;6852;51.686;5.314;2023-04-03T09:25:56;0.87;;;0.60;;
13560;SDS011;6852;51.686;5.314;2023-04-03T09:28:32;2.03;;;0.70;;
13560;SDS011;6852;51.686;5.314;2023-04-03T09:31:17;1.90;;;0.70;;
13560;SDS011;6852;51.686;5.314;2023-04-03T09:33:50;1.13;;;0.70;;
13560;SDS011;6852;51.686;5.314;2023-04-03T09:36:39;0.87;;;0.67;;
13560;SDS011;6852;51.686;5.314;2023-04-03T09:39:11;2.17;;;0.60;;
13560;SDS011;6852;51.686;5.314;2023-04-03T09:41:41;1.57;;;0.70;;
13560;SDS011;6852;51.686;5.314;2023-04-03T09:44:21;2.20;;;0.60;;
13560;SDS011;6852;51.686;5.314;2023-04-03T09:46:51;0.80;;;0.50;;
13560;SDS011;6852;51.686;5.314;2023-04-03T09:49:18;1.37;;;0.70;;
13560;SDS011;6852;51.686;5.314;2023-04-03T09:51:45;1.30;;;0.70;;
13560;SDS011;6852;51.686;5.314;2023-04-03T09:57:04;0.60;;;0.43;;
13560;SDS011;6852;51.686;5.314;2023-04-03T09:59:34;2.00;;;0.80;;
13560;SDS011;6852;51.686;5.314;2023-04-03T10:02:04;1.60;;;0.50;;
13560;SDS011;6852;51.686;5.314;2023-04-03T10:04:48;0.93;;;0.50;;
13560;SDS011;6852;51.686;5.314;2023-04-03T10:07:37;1.37;;;0.70;;
13560;SDS011;6852;51.686;5.314;2023-04-03T10:10:18;0.80;;;0.70;;
13560;SDS011;6852;51.686;5.314;2023-04-03T10:13:00;2.30;;;0.97;;
13560;SDS011;6852;51.686;5.314;2023-04-03T10:15:44;1.90;;;0.67;;
13560;SDS011;6852;51.686;5.314;2023-04-03T10:18:29;3.50;;;0.83;;
13560;SDS011;6852;51.686;5.314;2023-04-03T10:29:26;0.70;;;0.67;;
13560;SDS011;6852;51.686;5.314;2023-04-03T10:34:46;1.53;;;0.70;;
13560;SDS011;6852;51.686;5.314;2023-04-03T10:37:30;1.03;;;0.50;;
13560;SDS011;6852;51.686;5.314;2023-04-03T10:40:20;1.60;;;0.53;;
13560;SDS011;6852;51.686;5.314;2023-04-03T10:51:44;0.60;;;0.40;;
13560;SDS011;6852;51.686;5.314;2023-04-03T10:56:57;2.10;;;0.50;;
13560;SDS011;6852;51.686;5.314;2023-04-03T10:59:38;0.67;;;0.40;;
13560;SDS011;6852;51.686;5.314;2023-04-03T11:02:21;0.50;;;0.50;;
13560;SDS011;6852;51.686;5.314;2023-04-03T11:05:00;1.57;;;0.70;;
13560;SDS011;6852;51.686;5.314;2023-04-03T11:07:43;0.90;;;0.40;;
13560;SDS011;6852;51.686;5.314;2023-04-03T11:13:06;0.90;;;0.80;;
13560;SDS011;6852;51.686;5.314;2023-04-03T11:15:39;0.60;;;0.40;;
13560;SDS011;6852;51.686;5.314;2023-04-03T11:18:11;0.87;;;0.40;;
13560;SDS011;6852;51.686;5.314;2023-04-03T11:20:44;0.93;;;0.60;;
13560;SDS011;6852;51.686;5.314;2023-04-03T11:23:25;0.97;;;0.70;;
13560;SDS011;6852;51.686;5.314;2023-04-03T11:26:12;0.63;;;0.40;;
13560;SDS011;6852;51.686;5.314;2023-04-03T11:28:51;2.30;;;0.53;;
13560;SDS011;6852;51.686;5.314;2023-04-03T11:31:29;1.40;;;0.50;;
13560;SDS011;6852;51.686;5.314;2023-04-03T11:36:51;0.47;;;0.40;;
13560;SDS011;6852;51.686;5.314;2023-04-03T11:39:29;1.10;;;0.47;;
13560;SDS011;6852;51.686;5.314;2023-04-03T11:42:13;0.97;;;0.50;;
13560;SDS011;6852;51.686;5.314;2023-04-03T11:47:57;2.17;;;0.47;;
13560;SDS011;6852;51.686;5.314;2023-04-03T11:50:48;1.03;;;0.47;;
13560;SDS011;6852;51.686;5.314;2023-04-03T11:58:34;0.57;;;0.57;;
13560;SDS011;6852;51.686;5.314;2023-04-03T12:01:09;2.43;;;0.50;;
13560;SDS011;6852;51.686;5.314;2023-04-03T12:21:16;2.60;;;0.60;;
13560;SDS011;6852;51.686;5.314;2023-04-03T12:48:39;1.37;;;0.70;;
13560;SDS011;6852;51.686;5.314;2023-04-03T12:54:26;1.77;;;0.83;;
13560;SDS011;6852;51.686;5.314;2023-04-03T12:57:09;1.30;;;0.70;;
13560;SDS011;6852;51.686;5.314;2023-04-03T12:59:44;2.53;;;0.93;;
13560;SDS011;6852;51.686;5.314;2023-04-03T13:02:27;1.20;;;0.53;;
13560;SDS011;6852;51.686;5.314;2023-04-03T13:05:05;1.00;;;0.70;;
13560;SDS011;6852;51.686;5.314;2023-04-03T13:07:35;1.60;;;0.70;;
13560;SDS011;6852;51.686;5.314;2023-04-03T13:12:35;1.80;;;0.83;;
13560;SDS011;6852;51.686;5.314;2023-04-03T13:15:22;1.83;;;1.00;;
13560;SDS011;6852;51.686;5.314;2023-04-03T13:17:52;0.97;;;0.80;;
13560;SDS011;6852;51.686;5.314;2023-04-03T13:20:30;1.90;;;1.00;;
13560;SDS011;6852;51.686;5.314;2023-04-03T13:23:02;2.27;;;1.00;;
13560;SDS011;6852;51.686;5.314;2023-04-03T13:25:36;2.50;;;0.63;;
13560;SDS011;6852;51.686;5.314;2023-04-03T13:28:13;1.47;;;0.97;;
13560;SDS011;6852;51.686;5.314;2023-04-03T13:30:55;2.00;;;1.10;;
13560;SDS011;6852;51.686;5.314;2023-04-03T13:33:26;1.33;;;1.10;;
13560;SDS011;6852;51.686;5.314;2023-04-03T13:36:00;1.10;;;0.80;;
13560;SDS011;6852;51.686;5.314;2023-04-03T13:38:32;1.60;;;0.93;;
13560;SDS011;6852;51.686;5.314;2023-04-03T13:41:01;2.77;;;0.93;;
13560;SDS011;6852;51.686;5.314;2023-04-03T13:43:32;2.67;;;0.90;;
13560;SDS011;6852;51.686;5.314;2023-04-03T13:48:45;2.90;;;1.00;;
13560;SDS011;6852;51.686;5.314;2023-04-03T13:53:52;3.40;;;0.90;;
13560;SDS011;6852;51.686;5.314;2023-04-03T13:56:36;2.20;;;0.90;;
13560;SDS011;6852;51.686;5.314;2023-04-03T14:01:44;2.43;;;0.80;;
13560;SDS011;6852;51.686;5.314;2023-04-03T14:04:44;1.27;;;1.10;;
13560;SDS011;6852;51.686;5.314;2023-04-03T14:07:11;2.37;;;0.80;;
13560;SDS011;6852;51.686;5.314;2023-04-03T14:09:39;2.00;;;0.97;;
13560;SDS011;6852;51.686;5.314;2023-04-03T14:12:17;2.00;;;1.00;;
13560;SDS011;6852;51.686;5.314;2023-04-03T14:14:57;1.60;;;0.90;;
13560;SDS011;6852;51.686;5.314;2023-04-03T14:17:30;1.53;;;1.20;;
13560;SDS011;6852;51.686;5.314;2023-04-03T14:19:57;5.10;;;0.90;;
13560;SDS011;6852;51.686;5.314;2023-04-03T14:22:28;1.70;;;0.90;;
13560;SDS011;6852;51.686;5.314;2023-04-03T14:24:57;1.67;;;1.00;;
13560;SDS011;6852;51.686;5.314;2023-04-03T14:27:29;1.83;;;0.80;;
13560;SDS011;6852;51.686;5.314;2023-04-03T14:30:06;2.17;;;1.43;;
13560;SDS011;6852;51.686;5.314;2023-04-03T14:32:35;1.93;;;1.20;;
13560;SDS011;6852;51.686;5.314;2023-04-03T14:35:03;1.43;;;0.90;;
13560;SDS011;6852;51.686;5.314;2023-04-03T14:37:30;2.63;;;1.10;;
13560;SDS011;6852;51.686;5.314;2023-04-03T14:40:08;1.73;;;1.10;;
13560;SDS011;6852;51.686;5.314;2023-04-03T14:42:42;3.50;;;1.17;;
13560;SDS011;6852;51.686;5.314;2023-04-03T14:45:11;2.23;;;1.07;;
13560;SDS011;6852;51.686;5.314;2023-04-03T14:47:41;1.47;;;1.00;;
13560;SDS011;6852;51.686;5.314;2023-04-03T14:50:15;1.27;;;1.10;;
13560;SDS011;6852;51.686;5.314;2023-04-03T14:52:44;3.03;;;1.30;;
13560;SDS011;6852;51.686;5.314;2023-04-03T14:55:12;2.17;;;1.20;;
13560;SDS011;6852;51.686;5.314;2023-04-03T14:57:42;2.27;;;0.80;;
13560;SDS011;6852;51.686;5.314;2023-04-03T15:00:14;3.60;;;1.30;;
13560;SDS011;6852;51.686;5.314;2023-04-03T15:02:43;2.53;;;1.10;;
13560;SDS011;6852;51.686;5.314;2023-04-03T15:05:12;2.13;;;1.00;;
13560;SDS011;6852;51.686;5.314;2023-04-03T15:07:45;1.87;;;0.80;;
13560;SDS011;6852;51.686;5.314;2023-04-03T15:10:24;2.00;;;1.00;;
13560;SDS011;6852;51.686;5.314;2023-04-03T15:12:52;2.17;;;0.80;;
13560;SDS011;6852;51.686;5.314;2023-04-03T15:15:20;1.33;;;1.00;;
13560;SDS011;6852;51.686;5.314;2023-04-03T15:17:52;2.93;;;1.27;;
13560;SDS011;6852;51.686;5.314;2023-04-03T15:20:23;1.93;;;0.80;;
13560;SDS011;6852;51.686;5.314;2023-04-03T15:22:53;1.20;;;0.90;;
13560;SDS011;6852;51.686;5.314;2023-04-03T15:25:20;1.40;;;1.27;;
13560;SDS011;6852;51.686;5.314;2023-04-03T15:27:47;3.10;;;1.20;;
13560;SDS011;6852;51.686;5.314;2023-04-03T15:30:15;3.17;;;1.00;;
13560;SDS011;6852;51.686;5.314;2023-04-03T15:32:44;1.30;;;0.73;;
13560;SDS011;6852;51.686;5.314;2023-04-03T15:35:11;2.67;;;1.27;;
13560;SDS011;6852;51.686;5.314;2023-04-03T15:37:38;2.50;;;1.77;;
13560;SDS011;6852;51.686;5.314;2023-04-03T15:40:05;1.60;;;1.13;;
13560;SDS011;6852;51.686;5.314;2023-04-03T15:42:33;1.77;;;1.27;;
13560;SDS011;6852;51.686;5.314;2023-04-03T15:45:00;2.90;;;1.20;;
13560;SDS011;6852;51.686;5.314;2023-04-03T15:47:27;2.03;;;0.93;;
13560;SDS011;6852;51.686;5.314;2023-04-03T15:49:55;3.43;;;1.37;;
13560;SDS011;6852;51.686;5.314;2023-04-03T15:52:22;5.57;;;1.20;;
13560;SDS011;6852;51.686;5.314;2023-04-03T15:54:49;1.73;;;0.90;;
13560;SDS011;6852;51.686;5.314;2023-04-03T15:57:16;1.40;;;1.00;;
13560;SDS011;6852;51.686;5.314;2023-04-03T15:59:43;1.93;;;0.93;;
13560;SDS011;6852;51.686;5.314;2023-04-03T16:02:10;1.47;;;0.90;;
13560;SDS011;6852;51.686;5.314;2023-04-03T16:04:39;2.23;;;1.00;;
13560;SDS011;6852;51.686;5.314;2023-04-03T16:07:07;2.63;;;1.20;;
13560;SDS011;6852;51.686;5.314;2023-04-03T16:09:34;2.83;;;1.10;;
13560;SDS011;6852;51.686;5.314;2023-04-03T16:12:02;2.87;;;1.03;;
13560;SDS011;6852;51.686;5.314;2023-04-03T16:14:29;1.90;;;0.83;;
13560;SDS011;6852;51.686;5.314;2023-04-03T16:16:57;2.53;;;0.93;;
13560;SDS011;6852;51.686;5.314;2023-04-03T16:19:27;3.77;;;1.30;;
13560;SDS011;6852;51.686;5.314;2023-04-03T16:21:55;2.70;;;1.10;;
13560;SDS011;6852;51.686;5.314;2023-04-03T16:24:23;1.83;;;1.00;;
13560;SDS011;6852;51.686;5.314;2023-04-03T16:26:49;1.83;;;0.93;;
13560;SDS011;6852;51.686;5.314;2023-04-03T16:29:16;3.10;;;1.33;;
13560;SDS011;6852;51.686;5.314;2023-04-03T16:31:43;2.70;;;1.40;;
13560;SDS011;6852;51.686;5.314;2023-04-03T16:34:11;2.70;;;1.60;;
13560;SDS011;6852;51.686;5.314;2023-04-03T16:36:38;1.80;;;1.17;;
13560;SDS011;6852;51.686;5.314;2023-04-03T16:39:05;6.70;;;1.10;;
13560;SDS011;6852;51.686;5.314;2023-04-03T16:41:31;3.47;;;1.20;;
13560;SDS011;6852;51.686;5.314;2023-04-03T16:43:58;4.70;;;1.17;;
13560;SDS011;6852;51.686;5.314;2023-04-03T16:46:25;2.73;;;1.17;;
13560;SDS011;6852;51.686;5.314;2023-04-03T16:48:52;1.77;;;1.23;;
13560;SDS011;6852;51.686;5.314;2023-04-03T16:51:19;3.47;;;1.07;;
13560;SDS011;6852;51.686;5.314;2023-04-03T16:53:46;1.83;;;1.10;;
13560;SDS011;6852;51.686;5.314;2023-04-03T16:56:13;2.60;;;1.40;;
13560;SDS011;6852;51.686;5.314;2023-04-03T16:58:40;3.93;;;1.20;;
13560;SDS011;6852;51.686;5.314;2023-04-03T17:01:08;1.37;;;1.10;;
13560;SDS011;6852;51.686;5.314;2023-04-03T17:03:39;2.53;;;1.30;;
13560;SDS011;6852;51.686;5.314;2023-04-03T17:06:07;2.50;;;1.20;;
13560;SDS011;6852;51.686;5.314;2023-04-03T17:08:34;1.40;;;1.00;;
13560;SDS011;6852;51.686;5.314;2023-04-03T17:11:01;2.60;;;1.00;;
13560;SDS011;6852;51.686;5.314;2023-04-03T17:13:28;2.73;;;1.10;;
13560;SDS011;6852;51.686;5.314;2023-04-03T17:15:58;4.13;;;1.10;;
13560;SDS011;6852;51.686;5.314;2023-04-03T17:18:26;5.53;;;1.30;;